sensor_id;sensor_type;location;lat;lon;timestamp;temperature;humidity
77803;DHT22;66993;48.256;16.422;2023-05-07T00:00:17;13.7;95.0
77803;DHT22;66993;48.256;16.422;2023-05-07T00:05:17;13.8;95.0
77803;DHT22;66993;48.256;16.422;2023-05-07T00:10:16;13.9;95.0
77803;DHT22;66993;48.256;16.422;2023-05-07T00:15:17;13.6;95.0
77803;DHT22;66993;48.256;16.422;2023-05-07T00:20:17;13.6;95.0
77803;DHT22;66993;48.256;16.422;2023-05-07T00:25:16;13.5;96.0
77803;DHT22;66993;48.256;16.422;2023-05-07T00:30:16;13.5;96.0
77803;DHT22;66993;48.256;16.422;2023-05-07T00:35:17;13.4;96.0
77803;DHT22;66993;48.256;16.422;2023-05-07T00:40:17;13.3;95.0
77803;DHT22;66993;48.256;16.422;2023-05-07T00:45:17;13.2;95.0
77803;DHT22;66993;48.256;16.422;2023-05-07T00:50:17;13.2;95.0
77803;DHT22;66993;48.256;16.422;2023-05-07T00:55:17;13.0;95.0
77803;DHT22;66993;48.256;16.422;2023-05-07T01:00:17;12.9;95.0
77803;DHT22;66993;48.256;16.422;2023-05-07T01:05:17;13.1;95.0
77803;DHT22;66993;48.256;16.422;2023-05-07T01:10:16;13.2;96.0
77803;DHT22;66993;48.256;16.422;2023-05-07T01:15:17;13.1;96.0
77803;DHT22;66993;48.256;16.422;2023-05-07T01:20:17;13.3;96.0
77803;DHT22;66993;48.256;16.422;2023-05-07T01:25:17;13.2;96.0
77803;DHT22;66993;48.256;16.422;2023-05-07T01:30:17;13.3;96.0
77803;DHT22;66993;48.256;16.422;2023-05-07T01:35:18;13.4;96.0
77803;DHT22;66993;48.256;16.422;2023-05-07T01:40:17;13.3;96.0
77803;DHT22;66993;48.256;16.422;2023-05-07T01:45:17;13.5;96.0
77803;DHT22;66993;48.256;16.422;2023-05-07T01:50:17;13.4;96.0
77803;DHT22;66993;48.256;16.422;2023-05-07T01:55:17;13.4;96.0
77803;DHT22;66993;48.256;16.422;2023-05-07T02:00:17;13.4;96.0
77803;DHT22;66993;48.256;16.422;2023-05-07T02:05:16;13.6;95.0
77803;DHT22;66993;48.256;16.422;2023-05-07T02:10:17;13.5;95.0
77803;DHT22;66993;48.256;16.422;2023-05-07T02:15:17;13.4;95.0
77803;DHT22;66993;48.256;16.422;2023-05-07T02:20:17;13.4;95.0
77803;DHT22;66993;48.256;16.422;2023-05-07T02:25:17;13.1;95.0
77803;DHT22;66993;48.256;16.422;2023-05-07T02:30:17;13.1;95.0
77803;DHT22;66993;48.256;16.422;2023-05-07T02:35:16;13.1;95.0
77803;DHT22;66993;48.256;16.422;2023-05-07T02:40:17;13.1;95.0
77803;DHT22;66993;48.256;16.422;2023-05-07T02:45:17;12.9;95.0
77803;DHT22;66993;48.256;16.422;2023-05-07T02:50:17;12.8;95.0
77803;DHT22;66993;48.256;16.422;2023-05-07T02:55:17;12.9;95.0
77803;DHT22;66993;48.256;16.422;2023-05-07T03:00:17;12.9;94.0
77803;DHT22;66993;48.256;16.422;2023-05-07T03:05:17;12.7;94.0
77803;DHT22;66993;48.256;16.422;2023-05-07T03:10:17;12.6;94.0
77803;DHT22;66993;48.256;16.422;2023-05-07T03:15:17;12.6;94.0
77803;DHT22;66993;48.256;16.422;2023-05-07T03:20:16;12.6;94.0
77803;DHT22;66993;48.256;16.422;2023-05-07T03:25:17;12.6;95.0
77803;DHT22;66993;48.256;16.422;2023-05-07T03:30:17;12.6;95.0
77803;DHT22;66993;48.256;16.422;2023-05-07T03:35:17;12.5;95.0
77803;DHT22;66993;48.256;16.422;2023-05-07T03:40:17;12.4;95.0
77803;DHT22;66993;48.256;16.422;2023-05-07T03:45:16;12.4;95.0
77803;DHT22;66993;48.256;16.422;2023-05-07T03:50:17;12.4;95.0
77803;DHT22;66993;48.256;16.422;2023-05-07T03:55:16;12.3;95.0
77803;DHT22;66993;48.256;16.422;2023-05-07T04:00:16;12.4;95.0
77803;DHT22;66993;48.256;16.422;2023-05-07T04:05:16;12.4;95.0
77803;DHT22;66993;48.256;16.422;2023-05-07T04:10:17;12.4;95.0
77803;DHT22;66993;48.256;16.422;2023-05-07T04:15:16;12.4;95.0
77803;DHT22;66993;48.256;16.422;2023-05-07T04:20:16;12.4;95.0
77803;DHT22;66993;48.256;16.422;2023-05-07T04:25:17;12.5;95.0
77803;DHT22;66993;48.256;16.422;2023-05-07T04:30:16;12.7;95.0
77803;DHT22;66993;48.256;16.422;2023-05-07T04:35:17;12.8;94.0
77803;DHT22;66993;48.256;16.422;2023-05-07T04:40:17;12.8;94.0
77803;DHT22;66993;48.256;16.422;2023-05-07T04:45:16;12.9;93.0
77803;DHT22;66993;48.256;16.422;2023-05-07T04:50:17;13.0;93.0
77803;DHT22;66993;48.256;16.422;2023-05-07T04:55:17;13.2;92.0
77803;DHT22;66993;48.256;16.422;2023-05-07T05:00:17;13.1;92.0
77803;DHT22;66993;48.256;16.422;2023-05-07T05:05:17;13.3;91.0
77803;DHT22;66993;48.256;16.422;2023-05-07T05:10:17;13.3;90.0
77803;DHT22;66993;48.256;16.422;2023-05-07T05:15:21;13.5;90.0
77803;DHT22;66993;48.256;16.422;2023-05-07T05:20:16;13.5;89.0
77803;DHT22;66993;48.256;16.422;2023-05-07T05:25:17;13.4;88.0
77803;DHT22;66993;48.256;16.422;2023-05-07T05:30:16;13.5;88.0
77803;DHT22;66993;48.256;16.422;2023-05-07T05:35:16;13.5;87.0
77803;DHT22;66993;48.256;16.422;2023-05-07T05:40:17;13.6;87.0
77803;DHT22;66993;48.256;16.422;2023-05-07T05:45:16;13.6;87.0
77803;DHT22;66993;48.256;16.422;2023-05-07T05:50:17;13.9;86.0
77803;DHT22;66993;48.256;16.422;2023-05-07T05:55:17;14.0;84.0
77803;DHT22;66993;48.256;16.422;2023-05-07T06:00:17;14.4;84.0
77803;DHT22;66993;48.256;16.422;2023-05-07T06:05:17;14.0;82.0
77803;DHT22;66993;48.256;16.422;2023-05-07T06:10:17;14.1;82.0
77803;DHT22;66993;48.256;16.422;2023-05-07T06:15:16;14.6;83.0
77803;DHT22;66993;48.256;16.422;2023-05-07T06:20:17;15.1;82.0
77803;DHT22;66993;48.256;16.422;2023-05-07T06:25:17;16.1;78.0
77803;DHT22;66993;48.256;16.422;2023-05-07T06:30:17;15.6;77.0
77803;DHT22;66993;48.256;16.422;2023-05-07T06:35:17;15.1;76.0
77803;DHT22;66993;48.256;16.422;2023-05-07T06:40:17;15.6;76.0
77803;DHT22;66993;48.256;16.422;2023-05-07T06:45:17;14.8;75.0
77803;DHT22;66993;48.256;16.422;2023-05-07T06:50:17;15.3;76.0
77803;DHT22;66993;48.256;16.422;2023-05-07T06:55:17;15.4;77.0
77803;DHT22;66993;48.256;16.422;2023-05-07T07:00:17;15.0;77.0
77803;DHT22;66993;48.256;16.422;2023-05-07T07:05:17;14.8;75.0
77803;DHT22;66993;48.256;16.422;2023-05-07T07:10:17;15.3;76.0
77803;DHT22;66993;48.256;16.422;2023-05-07T07:15:16;15.8;76.0
77803;DHT22;66993;48.256;16.422;2023-05-07T07:20:16;15.7;75.0
77803;DHT22;66993;48.256;16.422;2023-05-07T07:25:17;15.7;76.0
77803;DHT22;66993;48.256;16.422;2023-05-07T07:30:17;15.6;77.0
77803;DHT22;66993;48.256;16.422;2023-05-07T07:35:17;15.7;76.0
77803;DHT22;66993;48.256;16.422;2023-05-07T07:40:17;16.2;74.0
77803;DHT22;66993;48.256;16.422;2023-05-07T07:45:17;15.4;74.0
77803;DHT22;66993;48.256;16.422;2023-05-07T07:50:16;15.9;74.0
77803;DHT22;66993;48.256;16.422;2023-05-07T07:55:19;16.3;73.0
77803;DHT22;66993;48.256;16.422;2023-05-07T08:00:17;16.4;73.0
77803;DHT22;66993;48.256;16.422;2023-05-07T08:05:16;15.9;71.0
77803;DHT22;66993;48.256;16.422;2023-05-07T08:10:16;17.0;71.0
77803;DHT22;66993;48.256;16.422;2023-05-07T08:15:17;16.5;67.0
77803;DHT22;66993;48.256;16.422;2023-05-07T08:20:16;17.0;67.0
77803;DHT22;66993;48.256;16.422;2023-05-07T08:25:16;17.1;65.0
77803;DHT22;66993;48.256;16.422;2023-05-07T08:30:17;17.3;62.0
77803;DHT22;66993;48.256;16.422;2023-05-07T08:35:16;17.4;65.0
77803;DHT22;66993;48.256;16.422;2023-05-07T08:40:17;17.4;67.0
77803;DHT22;66993;48.256;16.422;2023-05-07T08:45:17;16.9;68.0
77803;DHT22;66993;48.256;16.422;2023-05-07T08:50:16;17.4;67.0
77803;DHT22;66993;48.256;16.422;2023-05-07T08:55:16;17.4;68.0
77803;DHT22;66993;48.256;16.422;2023-05-07T09:00:17;17.9;67.0
77803;DHT22;66993;48.256;16.422;2023-05-07T09:05:17;17.0;66.0
77803;DHT22;66993;48.256;16.422;2023-05-07T09:10:16;17.3;65.0
77803;DHT22;66993;48.256;16.422;2023-05-07T09:15:17;17.4;64.0
77803;DHT22;66993;48.256;16.422;2023-05-07T09:20:16;17.9;64.0
77803;DHT22;66993;48.256;16.422;2023-05-07T09:25:17;19.4;61.0
77803;DHT22;66993;48.256;16.422;2023-05-07T09:30:16;19.4;59.0
77803;DHT22;66993;48.256;16.422;2023-05-07T09:35:17;19.9;59.0
77803;DHT22;66993;48.256;16.422;2023-05-07T09:40:20;19.4;56.0
77803;DHT22;66993;48.256;16.422;2023-05-07T09:45:21;17.9;58.0
77803;DHT22;66993;48.256;16.422;2023-05-07T09:50:17;18.9;58.0
77803;DHT22;66993;48.256;16.422;2023-05-07T09:55:16;19.4;58.0
77803;DHT22;66993;48.256;16.422;2023-05-07T10:00:17;18.4;61.0
77803;DHT22;66993;48.256;16.422;2023-05-07T10:05:17;18.0;61.0
77803;DHT22;66993;48.256;16.422;2023-05-07T10:10:17;18.5;60.0
77803;DHT22;66993;48.256;16.422;2023-05-07T10:15:22;19.5;61.0
77803;DHT22;66993;48.256;16.422;2023-05-07T10:20:17;20.0;60.0
77803;DHT22;66993;48.256;16.422;2023-05-07T10:25:18;20.0;60.0
77803;DHT22;66993;48.256;16.422;2023-05-07T10:30:20;19.0;60.0
77803;DHT22;66993;48.256;16.422;2023-05-07T10:35:17;20.0;60.0
77803;DHT22;66993;48.256;16.422;2023-05-07T10:40:17;19.0;60.0
77803;DHT22;66993;48.256;16.422;2023-05-07T10:45:17;19.4;60.0
77803;DHT22;66993;48.256;16.422;2023-05-07T10:50:20;19.2;60.0
77803;DHT22;66993;48.256;16.422;2023-05-07T10:55:20;19.2;59.0
77803;DHT22;66993;48.256;16.422;2023-05-07T11:05:20;19.7;55.0
77803;DHT22;66993;48.256;16.422;2023-05-07T11:10:17;20.2;55.0
77803;DHT22;66993;48.256;16.422;2023-05-07T11:15:33;21.2;49.0
77803;DHT22;66993;48.256;16.422;2023-05-07T11:20:16;21.3;50.0
77803;DHT22;66993;48.256;16.422;2023-05-07T11:25:17;21.3;50.0
77803;DHT22;66993;48.256;16.422;2023-05-07T11:30:17;20.8;53.0
77803;DHT22;66993;48.256;16.422;2023-05-07T11:35:17;20.8;53.0
77803;DHT22;66993;48.256;16.422;2023-05-07T11:40:16;20.3;55.0
77803;DHT22;66993;48.256;16.422;2023-05-07T11:45:22;21.3;54.0
77803;DHT22;66993;48.256;16.422;2023-05-07T11:50:16;20.8;54.0
77803;DHT22;66993;48.256;16.422;2023-05-07T11:55:17;21.3;55.0
77803;DHT22;66993;48.256;16.422;2023-05-07T12:00:17;21.3;55.0
77803;DHT22;66993;48.256;16.422;2023-05-07T12:05:17;20.3;55.0
77803;DHT22;66993;48.256;16.422;2023-05-07T12:10:16;21.3;55.0
77803;DHT22;66993;48.256;16.422;2023-05-07T12:15:17;20.3;56.0
77803;DHT22;66993;48.256;16.422;2023-05-07T12:20:17;20.3;57.0
77803;DHT22;66993;48.256;16.422;2023-05-07T12:25:18;19.8;55.0
77803;DHT22;66993;48.256;16.422;2023-05-07T12:30:16;19.8;56.0
77803;DHT22;66993;48.256;16.422;2023-05-07T12:35:17;20.8;56.0
77803;DHT22;66993;48.256;16.422;2023-05-07T12:40:16;20.8;56.0
77803;DHT22;66993;48.256;16.422;2023-05-07T12:45:16;21.8;56.0
77803;DHT22;66993;48.256;16.422;2023-05-07T12:50:17;22.3;55.0
77803;DHT22;66993;48.256;16.422;2023-05-07T12:55:17;22.3;56.0
77803;DHT22;66993;48.256;16.422;2023-05-07T13:00:17;21.3;54.0
77803;DHT22;66993;48.256;16.422;2023-05-07T13:05:17;20.8;55.0
77803;DHT22;66993;48.256;16.422;2023-05-07T13:10:16;22.8;53.0
77803;DHT22;66993;48.256;16.422;2023-05-07T13:15:17;22.3;54.0
77803;DHT22;66993;48.256;16.422;2023-05-07T13:20:17;23.3;53.0
77803;DHT22;66993;48.256;16.422;2023-05-07T13:25:17;20.8;55.0
77803;DHT22;66993;48.256;16.422;2023-05-07T13:30:17;20.8;54.0
77803;DHT22;66993;48.256;16.422;2023-05-07T13:35:17;21.6;55.0
77803;DHT22;66993;48.256;16.422;2023-05-07T13:40:17;21.1;55.0
77803;DHT22;66993;48.256;16.422;2023-05-07T13:45:17;20.6;55.0
77803;DHT22;66993;48.256;16.422;2023-05-07T13:50:17;20.5;54.0
77803;DHT22;66993;48.256;16.422;2023-05-07T13:55:17;20.0;55.0
77803;DHT22;66993;48.256;16.422;2023-05-07T14:00:17;21.0;55.0
77803;DHT22;66993;48.256;16.422;2023-05-07T14:05:17;20.9;55.0
77803;DHT22;66993;48.256;16.422;2023-05-07T14:10:17;19.9;54.0
77803;DHT22;66993;48.256;16.422;2023-05-07T14:15:17;20.3;55.0
77803;DHT22;66993;48.256;16.422;2023-05-07T14:20:17;19.6;55.0
77803;DHT22;66993;48.256;16.422;2023-05-07T14:25:17;19.8;56.0
77803;DHT22;66993;48.256;16.422;2023-05-07T14:30:16;19.3;56.0
77803;DHT22;66993;48.256;16.422;2023-05-07T14:35:17;19.2;57.0
77803;DHT22;66993;48.256;16.422;2023-05-07T14:40:17;19.0;57.0
77803;DHT22;66993;48.256;16.422;2023-05-07T14:45:17;18.9;58.0
77803;DHT22;66993;48.256;16.422;2023-05-07T14:50:16;19.1;58.0
77803;DHT22;66993;48.256;16.422;2023-05-07T14:55:17;19.1;58.0
77803;DHT22;66993;48.256;16.422;2023-05-07T15:00:17;18.4;57.0
77803;DHT22;66993;48.256;16.422;2023-05-07T15:05:16;18.7;58.0
77803;DHT22;66993;48.256;16.422;2023-05-07T15:10:22;18.8;58.0
77803;DHT22;66993;48.256;16.422;2023-05-07T15:15:16;19.3;57.0
77803;DHT22;66993;48.256;16.422;2023-05-07T15:20:17;19.1;57.0
77803;DHT22;66993;48.256;16.422;2023-05-07T15:25:22;19.1;57.0
77803;DHT22;66993;48.256;16.422;2023-05-07T15:30:17;18.6;57.0
77803;DHT22;66993;48.256;16.422;2023-05-07T15:35:16;18.7;57.0
77803;DHT22;66993;48.256;16.422;2023-05-07T15:40:17;18.7;57.0
77803;DHT22;66993;48.256;16.422;2023-05-07T15:45:16;18.2;57.0
77803;DHT22;66993;48.256;16.422;2023-05-07T15:50:17;18.1;57.0
77803;DHT22;66993;48.256;16.422;2023-05-07T15:55:17;18.1;57.0
77803;DHT22;66993;48.256;16.422;2023-05-07T16:00:17;18.1;57.0
77803;DHT22;66993;48.256;16.422;2023-05-07T16:05:17;17.6;57.0
77803;DHT22;66993;48.256;16.422;2023-05-07T16:10:17;17.6;57.0
77803;DHT22;66993;48.256;16.422;2023-05-07T16:15:17;17.4;57.0
77803;DHT22;66993;48.256;16.422;2023-05-07T16:20:17;17.6;57.0
77803;DHT22;66993;48.256;16.422;2023-05-07T16:25:17;17.1;58.0
77803;DHT22;66993;48.256;16.422;2023-05-07T16:30:16;17.0;58.0
77803;DHT22;66993;48.256;16.422;2023-05-07T16:35:17;16.7;58.0
77803;DHT22;66993;48.256;16.422;2023-05-07T16:40:22;16.3;58.0
77803;DHT22;66993;48.256;16.422;2023-05-07T16:45:17;15.9;58.0
77803;DHT22;66993;48.256;16.422;2023-05-07T16:50:17;15.6;59.0
77803;DHT22;66993;48.256;16.422;2023-05-07T16:55:17;15.4;59.0
77803;DHT22;66993;48.256;16.422;2023-05-07T17:00:17;15.1;59.0
77803;DHT22;66993;48.256;16.422;2023-05-07T17:05:17;14.8;60.0
77803;DHT22;66993;48.256;16.422;2023-05-07T17:10:17;14.8;61.0
77803;DHT22;66993;48.256;16.422;2023-05-07T17:15:17;14.5;61.0
77803;DHT22;66993;48.256;16.422;2023-05-07T17:20:17;14.3;61.0
77803;DHT22;66993;48.256;16.422;2023-05-07T17:25:17;14.2;62.0
77803;DHT22;66993;48.256;16.422;2023-05-07T17:30:17;14.1;62.0
77803;DHT22;66993;48.256;16.422;2023-05-07T17:35:16;13.8;62.0
77803;DHT22;66993;48.256;16.422;2023-05-07T17:40:17;13.5;62.0
77803;DHT22;66993;48.256;16.422;2023-05-07T17:45:17;13.4;62.0
77803;DHT22;66993;48.256;16.422;2023-05-07T17:50:18;13.2;63.0
77803;DHT22;66993;48.256;16.422;2023-05-07T17:55:16;12.9;63.0
77803;DHT22;66993;48.256;16.422;2023-05-07T18:00:17;12.6;64.0
77803;DHT22;66993;48.256;16.422;2023-05-07T18:05:17;12.5;65.0
77803;DHT22;66993;48.256;16.422;2023-05-07T18:10:17;12.3;65.0
77803;DHT22;66993;48.256;16.422;2023-05-07T18:15:18;12.0;65.0
77803;DHT22;66993;48.256;16.422;2023-05-07T18:20:17;11.8;66.0
77803;DHT22;66993;48.256;16.422;2023-05-07T18:25:17;11.6;66.0
77803;DHT22;66993;48.256;16.422;2023-05-07T18:30:17;11.4;66.0
77803;DHT22;66993;48.256;16.422;2023-05-07T18:35:17;11.3;67.0
77803;DHT22;66993;48.256;16.422;2023-05-07T18:40:16;11.1;67.0
77803;DHT22;66993;48.256;16.422;2023-05-07T18:45:17;11.0;68.0
77803;DHT22;66993;48.256;16.422;2023-05-07T18:50:17;10.9;69.0
77803;DHT22;66993;48.256;16.422;2023-05-07T18:55:17;10.8;69.0
77803;DHT22;66993;48.256;16.422;2023-05-07T19:00:17;10.7;71.0
77803;DHT22;66993;48.256;16.422;2023-05-07T19:05:17;10.6;71.0
77803;DHT22;66993;48.256;16.422;2023-05-07T19:10:17;10.5;71.0
77803;DHT22;66993;48.256;16.422;2023-05-07T19:15:17;10.4;71.0
77803;DHT22;66993;48.256;16.422;2023-05-07T19:20:17;10.3;71.0
77803;DHT22;66993;48.256;16.422;2023-05-07T19:25:22;10.2;71.0
77803;DHT22;66993;48.256;16.422;2023-05-07T19:30:17;10.0;71.0
77803;DHT22;66993;48.256;16.422;2023-05-07T19:35:17;10.0;72.0
77803;DHT22;66993;48.256;16.422;2023-05-07T19:40:17;9.8;72.0
77803;DHT22;66993;48.256;16.422;2023-05-07T19:45:17;9.7;72.0
77803;DHT22;66993;48.256;16.422;2023-05-07T19:50:17;9.6;72.0
77803;DHT22;66993;48.256;16.422;2023-05-07T19:55:21;9.5;72.0
77803;DHT22;66993;48.256;16.422;2023-05-07T20:00:23;9.5;73.0
77803;DHT22;66993;48.256;16.422;2023-05-07T20:05:17;9.4;73.0
77803;DHT22;66993;48.256;16.422;2023-05-07T20:10:17;9.4;73.0
77803;DHT22;66993;48.256;16.422;2023-05-07T20:15:17;9.3;73.0
77803;DHT22;66993;48.256;16.422;2023-05-07T20:20:17;9.2;73.0
77803;DHT22;66993;48.256;16.422;2023-05-07T20:25:17;9.2;73.0
77803;DHT22;66993;48.256;16.422;2023-05-07T20:30:22;9.2;73.0
77803;DHT22;66993;48.256;16.422;2023-05-07T20:35:17;9.2;73.0
77803;DHT22;66993;48.256;16.422;2023-05-07T20:40:22;9.1;74.0
77803;DHT22;66993;48.256;16.422;2023-05-07T20:45:17;9.1;74.0
77803;DHT22;66993;48.256;16.422;2023-05-07T20:50:17;9.0;74.0
77803;DHT22;66993;48.256;16.422;2023-05-07T20:55:17;8.9;74.0
77803;DHT22;66993;48.256;16.422;2023-05-07T21:00:17;8.9;74.0
77803;DHT22;66993;48.256;16.422;2023-05-07T21:05:22;8.9;74.0
77803;DHT22;66993;48.256;16.422;2023-05-07T21:10:17;8.8;74.0
77803;DHT22;66993;48.256;16.422;2023-05-07T21:15:22;8.7;75.0
77803;DHT22;66993;48.256;16.422;2023-05-07T21:20:22;8.7;75.0
77803;DHT22;66993;48.256;16.422;2023-05-07T21:25:17;8.7;75.0
77803;DHT22;66993;48.256;16.422;2023-05-07T21:30:22;8.7;75.0
77803;DHT22;66993;48.256;16.422;2023-05-07T21:35:21;8.6;75.0
77803;DHT22;66993;48.256;16.422;2023-05-07T21:40:17;8.6;75.0
77803;DHT22;66993;48.256;16.422;2023-05-07T21:45:17;8.5;75.0
77803;DHT22;66993;48.256;16.422;2023-05-07T21:50:22;8.4;75.0
77803;DHT22;66993;48.256;16.422;2023-05-07T21:55:17;8.3;75.0
77803;DHT22;66993;48.256;16.422;2023-05-07T22:00:21;8.4;75.0
77803;DHT22;66993;48.256;16.422;2023-05-07T22:05:17;8.4;76.0
77803;DHT22;66993;48.256;16.422;2023-05-07T22:10:23;8.5;76.0
77803;DHT22;66993;48.256;16.422;2023-05-07T22:15:17;8.4;76.0
77803;DHT22;66993;48.256;16.422;2023-05-07T22:20:17;8.2;76.0
77803;DHT22;66993;48.256;16.422;2023-05-07T22:25:22;8.2;76.0
77803;DHT22;66993;48.256;16.422;2023-05-07T22:30:17;8.2;76.0
77803;DHT22;66993;48.256;16.422;2023-05-07T22:35:17;8.1;76.0
77803;DHT22;66993;48.256;16.422;2023-05-07T22:40:17;8.2;77.0
77803;DHT22;66993;48.256;16.422;2023-05-07T22:45:17;8.1;77.0
77803;DHT22;66993;48.256;16.422;2023-05-07T22:50:22;8.1;77.0
77803;DHT22;66993;48.256;16.422;2023-05-07T22:55:24;8.1;77.0
77803;DHT22;66993;48.256;16.422;2023-05-07T23:00:17;8.1;76.0
77803;DHT22;66993;48.256;16.422;2023-05-07T23:05:22;8.0;76.0
77803;DHT22;66993;48.256;16.422;2023-05-07T23:10:29;8.0;76.0
77803;DHT22;66993;48.256;16.422;2023-05-07T23:15:18;8.0;76.0
77803;DHT22;66993;48.256;16.422;2023-05-07T23:20:16;7.8;76.0
77803;DHT22;66993;48.256;16.422;2023-05-07T23:25:18;7.8;76.0
77803;DHT22;66993;48.256;16.422;2023-05-07T23:30:22;7.8;76.0
77803;DHT22;66993;48.256;16.422;2023-05-07T23:35:17;7.8;76.0
77803;DHT22;66993;48.256;16.422;2023-05-07T23:40:21;7.7;76.0
77803;DHT22;66993;48.256;16.422;2023-05-07T23:45:22;7.7;76.0
77803;DHT22;66993;48.256;16.422;2023-05-07T23:50:17;7.7;77.0
77803;DHT22;66993;48.256;16.422;2023-05-07T23:55:17;7.8;76.0
